sensor_id;sensor_type;location;lat;lon;timestamp;P1;durP1;ratioP1;P2;durP2;ratioP2
77589;SDS011;66746;51.328;12.332;2023-02-13T00:01:43;25.75;;;12.68;;
77589;SDS011;66746;51.328;12.332;2023-02-13T00:04:14;20.23;;;10.82;;
77589;SDS011;66746;51.328;12.332;2023-02-13T00:06:39;22.42;;;11.35;;
77589;SDS011;66746;51.328;12.332;2023-02-13T00:09:13;22.15;;;11.73;;
77589;SDS011;66746;51.328;12.332;2023-02-13T00:14:20;23.85;;;11.65;;
77589;SDS011;66746;51.328;12.332;2023-02-13T00:16:45;22.50;;;11.93;;
77589;SDS011;66746;51.328;12.332;2023-02-13T00:19:11;20.83;;;11.00;;
77589;SDS011;66746;51.328;12.332;2023-02-13T00:21:43;17.02;;;10.00;;
77589;SDS011;66746;51.328;12.332;2023-02-13T00:24:14;22.63;;;10.40;;
77589;SDS011;66746;51.328;12.332;2023-02-13T00:26:42;22.35;;;10.70;;
77589;SDS011;66746;51.328;12.332;2023-02-13T00:29:17;21.55;;;10.85;;
77589;SDS011;66746;51.328;12.332;2023-02-13T00:31:44;21.05;;;11.27;;
77589;SDS011;66746;51.328;12.332;2023-02-13T00:34:15;18.35;;;10.27;;
77589;SDS011;66746;51.328;12.332;2023-02-13T00:36:43;21.83;;;11.35;;
77589;SDS011;66746;51.328;12.332;2023-02-13T00:39:14;21.92;;;10.75;;
77589;SDS011;66746;51.328;12.332;2023-02-13T00:41:44;22.25;;;10.35;;
77589;SDS011;66746;51.328;12.332;2023-02-13T00:44:13;20.55;;;11.30;;
77589;SDS011;66746;51.328;12.332;2023-02-13T00:46:45;20.38;;;11.02;;
77589;SDS011;66746;51.328;12.332;2023-02-13T00:49:16;20.60;;;10.80;;
77589;SDS011;66746;51.328;12.332;2023-02-13T00:51:43;22.33;;;10.48;;
77589;SDS011;66746;51.328;12.332;2023-02-13T00:54:14;21.77;;;12.18;;
77589;SDS011;66746;51.328;12.332;2023-02-13T00:56:42;21.98;;;11.05;;
77589;SDS011;66746;51.328;12.332;2023-02-13T00:59:13;21.23;;;11.30;;
77589;SDS011;66746;51.328;12.332;2023-02-13T01:01:44;23.63;;;12.18;;
77589;SDS011;66746;51.328;12.332;2023-02-13T01:04:13;23.45;;;11.35;;
77589;SDS011;66746;51.328;12.332;2023-02-13T01:06:43;24.90;;;11.15;;
77589;SDS011;66746;51.328;12.332;2023-02-13T01:09:17;22.27;;;10.63;;
77589;SDS011;66746;51.328;12.332;2023-02-13T01:11:43;23.45;;;11.23;;
77589;SDS011;66746;51.328;12.332;2023-02-13T01:14:14;23.58;;;11.50;;
77589;SDS011;66746;51.328;12.332;2023-02-13T01:16:43;23.73;;;11.95;;
77589;SDS011;66746;51.328;12.332;2023-02-13T01:19:13;21.40;;;12.27;;
77589;SDS011;66746;51.328;12.332;2023-02-13T01:21:43;24.80;;;11.27;;
77589;SDS011;66746;51.328;12.332;2023-02-13T01:24:08;25.77;;;11.52;;
77589;SDS011;66746;51.328;12.332;2023-02-13T01:26:41;28.42;;;12.70;;
77589;SDS011;66746;51.328;12.332;2023-02-13T01:29:06;22.25;;;13.05;;
77589;SDS011;66746;51.328;12.332;2023-02-13T01:31:33;24.60;;;11.85;;
77589;SDS011;66746;51.328;12.332;2023-02-13T01:33:58;24.73;;;12.50;;
77589;SDS011;66746;51.328;12.332;2023-02-13T01:36:24;23.67;;;12.25;;
77589;SDS011;66746;51.328;12.332;2023-02-13T01:38:51;25.90;;;12.50;;
77589;SDS011;66746;51.328;12.332;2023-02-13T01:41:18;23.13;;;11.90;;
77589;SDS011;66746;51.328;12.332;2023-02-13T01:43:45;26.17;;;12.23;;
77589;SDS011;66746;51.328;12.332;2023-02-13T01:46:18;22.05;;;10.52;;
77589;SDS011;66746;51.328;12.332;2023-02-13T01:48:48;23.38;;;11.40;;
77589;SDS011;66746;51.328;12.332;2023-02-13T01:51:17;24.90;;;11.63;;
77589;SDS011;66746;51.328;12.332;2023-02-13T01:53:47;25.30;;;12.45;;
77589;SDS011;66746;51.328;12.332;2023-02-13T01:56:17;26.38;;;12.93;;
77589;SDS011;66746;51.328;12.332;2023-02-13T01:58:48;20.83;;;11.15;;
77589;SDS011;66746;51.328;12.332;2023-02-13T02:01:18;25.90;;;12.30;;
77589;SDS011;66746;51.328;12.332;2023-02-13T02:03:44;25.02;;;12.07;;
77589;SDS011;66746;51.328;12.332;2023-02-13T02:06:15;24.52;;;12.18;;
77589;SDS011;66746;51.328;12.332;2023-02-13T02:08:45;22.80;;;11.73;;
77589;SDS011;66746;51.328;12.332;2023-02-13T02:11:14;23.00;;;11.40;;
77589;SDS011;66746;51.328;12.332;2023-02-13T02:13:44;21.40;;;11.80;;
77589;SDS011;66746;51.328;12.332;2023-02-13T02:16:13;20.52;;;10.30;;
77589;SDS011;66746;51.328;12.332;2023-02-13T02:18:44;23.65;;;12.18;;
77589;SDS011;66746;51.328;12.332;2023-02-13T02:21:21;25.30;;;11.02;;
77589;SDS011;66746;51.328;12.332;2023-02-13T02:24:24;23.75;;;10.90;;
77589;SDS011;66746;51.328;12.332;2023-02-13T02:27:13;22.00;;;10.15;;
77589;SDS011;66746;51.328;12.332;2023-02-13T02:32:54;21.52;;;9.60;;
77589;SDS011;66746;51.328;12.332;2023-02-13T02:35:28;22.00;;;9.82;;
77589;SDS011;66746;51.328;12.332;2023-02-13T02:38:05;22.27;;;9.50;;
77589;SDS011;66746;51.328;12.332;2023-02-13T02:40:49;18.98;;;10.32;;
77589;SDS011;66746;51.328;12.332;2023-02-13T02:43:24;20.83;;;9.32;;
77589;SDS011;66746;51.328;12.332;2023-02-13T02:46:00;20.45;;;9.07;;
77589;SDS011;66746;51.328;12.332;2023-02-13T02:48:36;17.08;;;8.40;;
77589;SDS011;66746;51.328;12.332;2023-02-13T02:51:18;18.27;;;8.98;;
77589;SDS011;66746;51.328;12.332;2023-02-13T02:53:50;17.35;;;8.25;;
77589;SDS011;66746;51.328;12.332;2023-02-13T02:56:22;17.00;;;7.78;;
77589;SDS011;66746;51.328;12.332;2023-02-13T02:58:51;17.40;;;8.57;;
77589;SDS011;66746;51.328;12.332;2023-02-13T03:01:21;17.35;;;8.18;;
77589;SDS011;66746;51.328;12.332;2023-02-13T03:03:50;15.73;;;7.28;;
77589;SDS011;66746;51.328;12.332;2023-02-13T03:06:20;13.75;;;7.55;;
77589;SDS011;66746;51.328;12.332;2023-02-13T03:08:51;14.23;;;7.38;;
77589;SDS011;66746;51.328;12.332;2023-02-13T03:11:18;12.25;;;5.82;;
77589;SDS011;66746;51.328;12.332;2023-02-13T03:13:44;11.77;;;6.25;;
77589;SDS011;66746;51.328;12.332;2023-02-13T03:16:14;11.55;;;6.43;;
77589;SDS011;66746;51.328;12.332;2023-02-13T03:18:44;12.45;;;6.65;;
77589;SDS011;66746;51.328;12.332;2023-02-13T03:21:16;10.43;;;5.60;;
77589;SDS011;66746;51.328;12.332;2023-02-13T03:23:49;10.65;;;6.35;;
77589;SDS011;66746;51.328;12.332;2023-02-13T03:26:31;10.02;;;5.80;;
77589;SDS011;66746;51.328;12.332;2023-02-13T03:29:03;9.52;;;4.88;;
77589;SDS011;66746;51.328;12.332;2023-02-13T03:31:37;10.30;;;5.03;;
77589;SDS011;66746;51.328;12.332;2023-02-13T03:34:13;10.23;;;4.90;;
77589;SDS011;66746;51.328;12.332;2023-02-13T03:36:45;10.57;;;6.13;;
77589;SDS011;66746;51.328;12.332;2023-02-13T03:39:16;10.32;;;4.85;;
77589;SDS011;66746;51.328;12.332;2023-02-13T03:41:47;10.10;;;4.38;;
77589;SDS011;66746;51.328;12.332;2023-02-13T03:44:17;9.65;;;4.93;;
77589;SDS011;66746;51.328;12.332;2023-02-13T03:46:48;11.00;;;4.93;;
77589;SDS011;66746;51.328;12.332;2023-02-13T03:49:17;8.95;;;5.28;;
77589;SDS011;66746;51.328;12.332;2023-02-13T03:51:48;11.88;;;5.63;;
77589;SDS011;66746;51.328;12.332;2023-02-13T03:54:18;12.45;;;6.35;;
77589;SDS011;66746;51.328;12.332;2023-02-13T03:56:48;12.00;;;5.72;;
77589;SDS011;66746;51.328;12.332;2023-02-13T03:59:17;11.95;;;6.07;;
77589;SDS011;66746;51.328;12.332;2023-02-13T04:01:48;13.02;;;7.10;;
77589;SDS011;66746;51.328;12.332;2023-02-13T04:04:20;11.00;;;6.47;;
77589;SDS011;66746;51.328;12.332;2023-02-13T04:06:52;12.32;;;6.88;;
77589;SDS011;66746;51.328;12.332;2023-02-13T04:09:21;13.30;;;6.20;;
77589;SDS011;66746;51.328;12.332;2023-02-13T04:11:48;12.85;;;6.63;;
77589;SDS011;66746;51.328;12.332;2023-02-13T04:14:20;10.80;;;5.80;;
77589;SDS011;66746;51.328;12.332;2023-02-13T04:16:50;10.48;;;5.85;;
77589;SDS011;66746;51.328;12.332;2023-02-13T04:19:19;11.18;;;5.43;;
77589;SDS011;66746;51.328;12.332;2023-02-13T04:21:48;10.23;;;5.78;;
77589;SDS011;66746;51.328;12.332;2023-02-13T04:24:19;8.88;;;5.35;;
77589;SDS011;66746;51.328;12.332;2023-02-13T04:26:45;9.27;;;5.80;;
77589;SDS011;66746;51.328;12.332;2023-02-13T04:29:10;8.63;;;5.10;;
77589;SDS011;66746;51.328;12.332;2023-02-13T04:31:36;9.13;;;4.43;;
77589;SDS011;66746;51.328;12.332;2023-02-13T04:34:02;10.23;;;5.18;;
77589;SDS011;66746;51.328;12.332;2023-02-13T04:36:27;7.30;;;4.57;;
77589;SDS011;66746;51.328;12.332;2023-02-13T04:38:53;12.80;;;5.50;;
77589;SDS011;66746;51.328;12.332;2023-02-13T04:41:19;8.97;;;5.37;;
77589;SDS011;66746;51.328;12.332;2023-02-13T04:43:44;10.00;;;5.97;;
77589;SDS011;66746;51.328;12.332;2023-02-13T04:46:10;9.73;;;5.13;;
77589;SDS011;66746;51.328;12.332;2023-02-13T04:48:35;9.02;;;4.80;;
77589;SDS011;66746;51.328;12.332;2023-02-13T04:51:01;9.27;;;5.10;;
77589;SDS011;66746;51.328;12.332;2023-02-13T04:53:26;11.13;;;5.57;;
77589;SDS011;66746;51.328;12.332;2023-02-13T04:55:51;11.73;;;5.90;;
77589;SDS011;66746;51.328;12.332;2023-02-13T04:58:18;12.02;;;5.93;;
77589;SDS011;66746;51.328;12.332;2023-02-13T05:00:43;11.90;;;6.05;;
77589;SDS011;66746;51.328;12.332;2023-02-13T05:03:16;10.48;;;5.35;;
77589;SDS011;66746;51.328;12.332;2023-02-13T05:05:43;11.73;;;5.78;;
77589;SDS011;66746;51.328;12.332;2023-02-13T05:08:15;10.60;;;5.45;;
77589;SDS011;66746;51.328;12.332;2023-02-13T05:10:43;9.57;;;5.18;;
77589;SDS011;66746;51.328;12.332;2023-02-13T05:13:13;10.82;;;6.55;;
77589;SDS011;66746;51.328;12.332;2023-02-13T05:15:42;13.18;;;5.50;;
77589;SDS011;66746;51.328;12.332;2023-02-13T05:18:15;12.70;;;5.60;;
77589;SDS011;66746;51.328;12.332;2023-02-13T05:20:41;11.70;;;5.05;;
77589;SDS011;66746;51.328;12.332;2023-02-13T05:23:14;11.60;;;5.78;;
77589;SDS011;66746;51.328;12.332;2023-02-13T05:25:43;9.98;;;5.65;;
77589;SDS011;66746;51.328;12.332;2023-02-13T05:28:11;10.13;;;4.93;;
77589;SDS011;66746;51.328;12.332;2023-02-13T05:30:44;15.63;;;5.78;;
77589;SDS011;66746;51.328;12.332;2023-02-13T05:33:13;12.48;;;5.65;;
77589;SDS011;66746;51.328;12.332;2023-02-13T05:35:40;10.65;;;4.72;;
77589;SDS011;66746;51.328;12.332;2023-02-13T05:38:08;11.40;;;5.88;;
77589;SDS011;66746;51.328;12.332;2023-02-13T05:40:33;12.32;;;6.32;;
77589;SDS011;66746;51.328;12.332;2023-02-13T05:42:58;10.97;;;5.20;;
77589;SDS011;66746;51.328;12.332;2023-02-13T05:45:24;9.93;;;5.22;;
77589;SDS011;66746;51.328;12.332;2023-02-13T05:47:50;9.48;;;5.60;;
77589;SDS011;66746;51.328;12.332;2023-02-13T05:50:16;13.10;;;5.88;;
77589;SDS011;66746;51.328;12.332;2023-02-13T05:52:43;13.55;;;5.20;;
77589;SDS011;66746;51.328;12.332;2023-02-13T05:55:08;14.65;;;5.75;;
77589;SDS011;66746;51.328;12.332;2023-02-13T05:57:35;12.95;;;5.35;;
77589;SDS011;66746;51.328;12.332;2023-02-13T06:00:00;12.53;;;5.77;;
77589;SDS011;66746;51.328;12.332;2023-02-13T06:02:26;11.23;;;5.03;;
77589;SDS011;66746;51.328;12.332;2023-02-13T06:04:53;10.15;;;5.38;;
77589;SDS011;66746;51.328;12.332;2023-02-13T06:07:18;13.40;;;5.95;;
77589;SDS011;66746;51.328;12.332;2023-02-13T06:09:43;12.27;;;6.00;;
77589;SDS011;66746;51.328;12.332;2023-02-13T06:12:09;10.10;;;4.78;;
77589;SDS011;66746;51.328;12.332;2023-02-13T06:14:40;10.60;;;5.15;;
77589;SDS011;66746;51.328;12.332;2023-02-13T06:17:14;10.50;;;5.35;;
77589;SDS011;66746;51.328;12.332;2023-02-13T06:19:45;9.93;;;5.00;;
77589;SDS011;66746;51.328;12.332;2023-02-13T06:22:12;12.60;;;6.47;;
77589;SDS011;66746;51.328;12.332;2023-02-13T06:24:39;13.75;;;5.40;;
77589;SDS011;66746;51.328;12.332;2023-02-13T06:27:10;11.50;;;5.25;;
77589;SDS011;66746;51.328;12.332;2023-02-13T06:29:38;13.27;;;6.32;;
77589;SDS011;66746;51.328;12.332;2023-02-13T06:32:05;8.95;;;5.43;;
77589;SDS011;66746;51.328;12.332;2023-02-13T06:34:31;9.37;;;5.40;;
77589;SDS011;66746;51.328;12.332;2023-02-13T06:36:56;11.43;;;5.93;;
77589;SDS011;66746;51.328;12.332;2023-02-13T06:39:23;10.10;;;5.15;;
77589;SDS011;66746;51.328;12.332;2023-02-13T06:41:48;10.32;;;5.68;;
77589;SDS011;66746;51.328;12.332;2023-02-13T06:44:13;11.57;;;6.03;;
77589;SDS011;66746;51.328;12.332;2023-02-13T06:46:41;12.98;;;5.53;;
77589;SDS011;66746;51.328;12.332;2023-02-13T06:49:07;9.23;;;4.95;;
77589;SDS011;66746;51.328;12.332;2023-02-13T06:51:33;10.95;;;5.57;;
77589;SDS011;66746;51.328;12.332;2023-02-13T06:53:58;11.45;;;6.07;;
77589;SDS011;66746;51.328;12.332;2023-02-13T06:56:25;12.37;;;6.60;;
77589;SDS011;66746;51.328;12.332;2023-02-13T06:58:50;9.50;;;5.63;;
77589;SDS011;66746;51.328;12.332;2023-02-13T07:01:15;8.63;;;5.65;;
77589;SDS011;66746;51.328;12.332;2023-02-13T07:03:40;9.73;;;6.10;;
77589;SDS011;66746;51.328;12.332;2023-02-13T07:06:06;10.13;;;6.57;;
77589;SDS011;66746;51.328;12.332;2023-02-13T07:08:31;10.02;;;6.00;;
77589;SDS011;66746;51.328;12.332;2023-02-13T07:10:56;9.50;;;6.00;;
77589;SDS011;66746;51.328;12.332;2023-02-13T07:13:23;8.63;;;5.27;;
77589;SDS011;66746;51.328;12.332;2023-02-13T07:15:48;10.18;;;5.90;;
77589;SDS011;66746;51.328;12.332;2023-02-13T07:18:14;11.20;;;6.23;;
77589;SDS011;66746;51.328;12.332;2023-02-13T07:20:39;8.43;;;5.87;;
77589;SDS011;66746;51.328;12.332;2023-02-13T07:23:04;8.77;;;5.15;;
77589;SDS011;66746;51.328;12.332;2023-02-13T07:25:30;9.70;;;5.43;;
77589;SDS011;66746;51.328;12.332;2023-02-13T07:27:59;12.10;;;6.55;;
77589;SDS011;66746;51.328;12.332;2023-02-13T07:30:26;10.25;;;6.28;;
77589;SDS011;66746;51.328;12.332;2023-02-13T07:32:51;10.13;;;5.97;;
77589;SDS011;66746;51.328;12.332;2023-02-13T07:35:17;11.55;;;6.15;;
77589;SDS011;66746;51.328;12.332;2023-02-13T07:37:42;11.68;;;6.15;;
77589;SDS011;66746;51.328;12.332;2023-02-13T07:40:09;10.25;;;6.80;;
77589;SDS011;66746;51.328;12.332;2023-02-13T07:42:37;9.05;;;5.88;;
77589;SDS011;66746;51.328;12.332;2023-02-13T07:45:02;10.20;;;5.97;;
77589;SDS011;66746;51.328;12.332;2023-02-13T07:47:29;10.77;;;6.38;;
77589;SDS011;66746;51.328;12.332;2023-02-13T07:49:54;10.75;;;6.28;;
77589;SDS011;66746;51.328;12.332;2023-02-13T07:52:20;11.27;;;6.63;;
77589;SDS011;66746;51.328;12.332;2023-02-13T07:54:45;9.60;;;6.20;;
77589;SDS011;66746;51.328;12.332;2023-02-13T07:57:12;10.33;;;5.63;;
77589;SDS011;66746;51.328;12.332;2023-02-13T07:59:37;9.35;;;5.80;;
77589;SDS011;66746;51.328;12.332;2023-02-13T08:02:02;10.02;;;6.40;;
77589;SDS011;66746;51.328;12.332;2023-02-13T08:04:29;12.07;;;5.80;;
77589;SDS011;66746;51.328;12.332;2023-02-13T08:06:54;9.10;;;5.50;;
77589;SDS011;66746;51.328;12.332;2023-02-13T08:09:20;9.13;;;5.60;;
77589;SDS011;66746;51.328;12.332;2023-02-13T08:11:47;9.85;;;5.93;;
77589;SDS011;66746;51.328;12.332;2023-02-13T08:14:12;9.45;;;5.72;;
77589;SDS011;66746;51.328;12.332;2023-02-13T08:16:37;9.77;;;6.23;;
77589;SDS011;66746;51.328;12.332;2023-02-13T08:19:03;11.38;;;7.22;;
77589;SDS011;66746;51.328;12.332;2023-02-13T08:21:29;11.17;;;6.13;;
77589;SDS011;66746;51.328;12.332;2023-02-13T08:23:55;8.18;;;5.28;;
77589;SDS011;66746;51.328;12.332;2023-02-13T08:26:20;10.10;;;5.68;;
77589;SDS011;66746;51.328;12.332;2023-02-13T08:28:45;10.77;;;6.13;;
77589;SDS011;66746;51.328;12.332;2023-02-13T08:31:10;10.23;;;6.25;;
77589;SDS011;66746;51.328;12.332;2023-02-13T08:33:36;9.27;;;6.15;;
77589;SDS011;66746;51.328;12.332;2023-02-13T08:36:01;9.68;;;6.00;;
77589;SDS011;66746;51.328;12.332;2023-02-13T08:38:28;10.27;;;6.75;;
77589;SDS011;66746;51.328;12.332;2023-02-13T08:40:55;11.30;;;6.82;;
77589;SDS011;66746;51.328;12.332;2023-02-13T08:43:21;9.77;;;5.75;;
77589;SDS011;66746;51.328;12.332;2023-02-13T08:45:46;9.63;;;5.80;;
77589;SDS011;66746;51.328;12.332;2023-02-13T08:48:11;10.70;;;6.20;;
77589;SDS011;66746;51.328;12.332;2023-02-13T08:50:36;11.60;;;6.87;;
77589;SDS011;66746;51.328;12.332;2023-02-13T08:53:02;10.80;;;6.73;;
77589;SDS011;66746;51.328;12.332;2023-02-13T08:55:28;11.40;;;6.72;;
77589;SDS011;66746;51.328;12.332;2023-02-13T08:57:54;9.63;;;6.03;;
77589;SDS011;66746;51.328;12.332;2023-02-13T09:00:19;8.77;;;5.30;;
77589;SDS011;66746;51.328;12.332;2023-02-13T09:02:47;9.43;;;6.15;;
77589;SDS011;66746;51.328;12.332;2023-02-13T09:05:20;8.23;;;5.22;;
77589;SDS011;66746;51.328;12.332;2023-02-13T09:07:51;9.00;;;5.65;;
77589;SDS011;66746;51.328;12.332;2023-02-13T09:10:23;8.73;;;5.43;;
77589;SDS011;66746;51.328;12.332;2023-02-13T09:12:52;8.85;;;5.93;;
77589;SDS011;66746;51.328;12.332;2023-02-13T09:15:18;10.00;;;6.55;;
77589;SDS011;66746;51.328;12.332;2023-02-13T09:17:45;8.48;;;5.13;;
77589;SDS011;66746;51.328;12.332;2023-02-13T09:20:12;10.55;;;6.95;;
77589;SDS011;66746;51.328;12.332;2023-02-13T09:22:38;11.57;;;6.70;;
77589;SDS011;66746;51.328;12.332;2023-02-13T09:25:04;12.27;;;6.55;;
77589;SDS011;66746;51.328;12.332;2023-02-13T09:27:30;10.98;;;6.40;;
77589;SDS011;66746;51.328;12.332;2023-02-13T09:29:56;10.68;;;6.82;;
77589;SDS011;66746;51.328;12.332;2023-02-13T09:32:21;12.57;;;7.28;;
77589;SDS011;66746;51.328;12.332;2023-02-13T09:34:47;13.70;;;7.47;;
77589;SDS011;66746;51.328;12.332;2023-02-13T09:37:12;13.05;;;7.50;;
77589;SDS011;66746;51.328;12.332;2023-02-13T09:39:37;10.95;;;6.57;;
77589;SDS011;66746;51.328;12.332;2023-02-13T09:42:03;11.40;;;6.68;;
77589;SDS011;66746;51.328;12.332;2023-02-13T09:44:39;12.93;;;7.70;;
77589;SDS011;66746;51.328;12.332;2023-02-13T09:47:12;12.90;;;8.40;;
77589;SDS011;66746;51.328;12.332;2023-02-13T09:49:43;11.25;;;7.10;;
77589;SDS011;66746;51.328;12.332;2023-02-13T09:52:12;12.30;;;7.20;;
77589;SDS011;66746;51.328;12.332;2023-02-13T09:54:38;12.63;;;8.65;;
77589;SDS011;66746;51.328;12.332;2023-02-13T09:57:05;13.80;;;8.35;;
77589;SDS011;66746;51.328;12.332;2023-02-13T09:59:40;12.45;;;7.28;;
77589;SDS011;66746;51.328;12.332;2023-02-13T10:02:20;11.43;;;6.75;;
77589;SDS011;66746;51.328;12.332;2023-02-13T10:04:56;13.98;;;7.20;;
77589;SDS011;66746;51.328;12.332;2023-02-13T10:07:32;11.98;;;7.53;;
77589;SDS011;66746;51.328;12.332;2023-02-13T10:10:10;11.82;;;7.00;;
77589;SDS011;66746;51.328;12.332;2023-02-13T10:12:46;11.18;;;6.50;;
77589;SDS011;66746;51.328;12.332;2023-02-13T10:15:20;10.65;;;6.50;;
77589;SDS011;66746;51.328;12.332;2023-02-13T10:17:55;10.35;;;6.03;;
77589;SDS011;66746;51.328;12.332;2023-02-13T10:20:27;9.65;;;5.97;;
77589;SDS011;66746;51.328;12.332;2023-02-13T10:22:57;9.77;;;5.65;;
77589;SDS011;66746;51.328;12.332;2023-02-13T10:25:27;9.52;;;5.57;;
77589;SDS011;66746;51.328;12.332;2023-02-13T10:27:59;9.32;;;4.70;;
77589;SDS011;66746;51.328;12.332;2023-02-13T10:30:31;7.55;;;5.13;;
77589;SDS011;66746;51.328;12.332;2023-02-13T10:33:01;8.18;;;5.35;;
77589;SDS011;66746;51.328;12.332;2023-02-13T10:35:30;7.78;;;5.47;;
77589;SDS011;66746;51.328;12.332;2023-02-13T10:37:56;7.88;;;5.10;;
77589;SDS011;66746;51.328;12.332;2023-02-13T10:40:23;6.85;;;4.85;;
77589;SDS011;66746;51.328;12.332;2023-02-13T10:42:56;8.75;;;5.95;;
77589;SDS011;66746;51.328;12.332;2023-02-13T10:48:25;7.85;;;4.85;;
77589;SDS011;66746;51.328;12.332;2023-02-13T10:51:01;6.03;;;5.03;;
77589;SDS011;66746;51.328;12.332;2023-02-13T10:53:35;6.32;;;4.38;;
77589;SDS011;66746;51.328;12.332;2023-02-13T10:56:19;6.55;;;4.50;;
77589;SDS011;66746;51.328;12.332;2023-02-13T10:58:52;6.95;;;5.47;;
77589;SDS011;66746;51.328;12.332;2023-02-13T11:01:31;6.03;;;5.00;;
77589;SDS011;66746;51.328;12.332;2023-02-13T11:04:05;6.82;;;3.72;;
77589;SDS011;66746;51.328;12.332;2023-02-13T11:06:32;5.47;;;3.85;;
77589;SDS011;66746;51.328;12.332;2023-02-13T11:08:59;6.57;;;4.80;;
77589;SDS011;66746;51.328;12.332;2023-02-13T11:11:28;7.75;;;5.00;;
77589;SDS011;66746;51.328;12.332;2023-02-13T11:14:06;8.57;;;5.70;;
77589;SDS011;66746;51.328;12.332;2023-02-13T11:16:37;10.82;;;7.10;;
77589;SDS011;66746;51.328;12.332;2023-02-13T11:19:05;9.90;;;5.65;;
77589;SDS011;66746;51.328;12.332;2023-02-13T11:21:43;7.85;;;5.82;;
77589;SDS011;66746;51.328;12.332;2023-02-13T11:24:16;7.50;;;5.57;;
77589;SDS011;66746;51.328;12.332;2023-02-13T11:29:15;5.78;;;4.13;;
77589;SDS011;66746;51.328;12.332;2023-02-13T11:31:46;6.57;;;4.68;;
77589;SDS011;66746;51.328;12.332;2023-02-13T11:34:28;6.03;;;4.72;;
77589;SDS011;66746;51.328;12.332;2023-02-13T11:37:06;5.53;;;4.35;;
77589;SDS011;66746;51.328;12.332;2023-02-13T11:39:39;6.28;;;4.35;;
77589;SDS011;66746;51.328;12.332;2023-02-13T11:42:09;7.78;;;4.47;;
77589;SDS011;66746;51.328;12.332;2023-02-13T11:44:37;5.15;;;4.25;;
77589;SDS011;66746;51.328;12.332;2023-02-13T11:47:05;5.45;;;4.05;;
77589;SDS011;66746;51.328;12.332;2023-02-13T11:49:32;5.53;;;3.78;;
77589;SDS011;66746;51.328;12.332;2023-02-13T11:52:00;5.93;;;4.00;;
77589;SDS011;66746;51.328;12.332;2023-02-13T11:54:28;6.63;;;4.53;;
77589;SDS011;66746;51.328;12.332;2023-02-13T11:56:57;5.20;;;4.50;;
77589;SDS011;66746;51.328;12.332;2023-02-13T11:59:24;5.32;;;3.70;;
77589;SDS011;66746;51.328;12.332;2023-02-13T12:02:00;5.45;;;4.28;;
77589;SDS011;66746;51.328;12.332;2023-02-13T12:04:27;4.97;;;3.20;;
77589;SDS011;66746;51.328;12.332;2023-02-13T12:06:58;4.95;;;3.03;;
77589;SDS011;66746;51.328;12.332;2023-02-13T12:09:25;5.75;;;3.75;;
77589;SDS011;66746;51.328;12.332;2023-02-13T12:11:52;5.05;;;3.45;;
77589;SDS011;66746;51.328;12.332;2023-02-13T12:14:20;4.95;;;3.60;;
77589;SDS011;66746;51.328;12.332;2023-02-13T12:16:47;5.35;;;4.18;;
77589;SDS011;66746;51.328;12.332;2023-02-13T12:19:17;5.60;;;4.68;;
77589;SDS011;66746;51.328;12.332;2023-02-13T12:21:52;4.80;;;3.90;;
77589;SDS011;66746;51.328;12.332;2023-02-13T12:24:36;5.93;;;4.03;;
77589;SDS011;66746;51.328;12.332;2023-02-13T12:27:20;5.72;;;3.72;;
77589;SDS011;66746;51.328;12.332;2023-02-13T12:29:58;6.30;;;4.50;;
77589;SDS011;66746;51.328;12.332;2023-02-13T12:32:39;5.50;;;4.10;;
77589;SDS011;66746;51.328;12.332;2023-02-13T12:35:30;7.03;;;5.45;;
77589;SDS011;66746;51.328;12.332;2023-02-13T12:38:08;7.55;;;5.35;;
77589;SDS011;66746;51.328;12.332;2023-02-13T12:40:49;6.82;;;4.28;;
77589;SDS011;66746;51.328;12.332;2023-02-13T12:43:31;6.68;;;4.70;;
77589;SDS011;66746;51.328;12.332;2023-02-13T12:46:13;6.53;;;4.18;;
77589;SDS011;66746;51.328;12.332;2023-02-13T12:48:46;7.18;;;4.15;;
77589;SDS011;66746;51.328;12.332;2023-02-13T12:51:20;6.95;;;4.25;;
77589;SDS011;66746;51.328;12.332;2023-02-13T12:54:09;5.80;;;4.30;;
77589;SDS011;66746;51.328;12.332;2023-02-13T12:56:56;5.70;;;3.97;;
77589;SDS011;66746;51.328;12.332;2023-02-13T12:59:32;6.43;;;4.13;;
77589;SDS011;66746;51.328;12.332;2023-02-13T13:05:13;6.88;;;5.18;;
77589;SDS011;66746;51.328;12.332;2023-02-13T13:07:52;5.78;;;4.28;;
77589;SDS011;66746;51.328;12.332;2023-02-13T13:10:34;6.47;;;4.63;;
77589;SDS011;66746;51.328;12.332;2023-02-13T13:13:13;7.20;;;5.22;;
77589;SDS011;66746;51.328;12.332;2023-02-13T13:15:51;7.50;;;5.63;;
77589;SDS011;66746;51.328;12.332;2023-02-13T13:18:29;7.68;;;5.07;;
77589;SDS011;66746;51.328;12.332;2023-02-13T13:23:57;8.63;;;6.47;;
77589;SDS011;66746;51.328;12.332;2023-02-13T13:26:29;9.05;;;6.85;;
77589;SDS011;66746;51.328;12.332;2023-02-13T13:28:59;10.13;;;7.15;;
77589;SDS011;66746;51.328;12.332;2023-02-13T13:31:28;7.70;;;6.07;;
77589;SDS011;66746;51.328;12.332;2023-02-13T13:33:55;8.27;;;7.13;;
77589;SDS011;66746;51.328;12.332;2023-02-13T13:36:29;8.75;;;6.10;;
77589;SDS011;66746;51.328;12.332;2023-02-13T13:39:04;9.68;;;6.72;;
77589;SDS011;66746;51.328;12.332;2023-02-13T13:41:37;10.40;;;6.50;;
77589;SDS011;66746;51.328;12.332;2023-02-13T13:44:15;9.38;;;6.30;;
77589;SDS011;66746;51.328;12.332;2023-02-13T13:46:49;7.88;;;6.93;;
77589;SDS011;66746;51.328;12.332;2023-02-13T13:49:26;10.85;;;7.40;;
77589;SDS011;66746;51.328;12.332;2023-02-13T13:52:08;9.98;;;7.07;;
77589;SDS011;66746;51.328;12.332;2023-02-13T13:54:36;8.75;;;6.30;;
77589;SDS011;66746;51.328;12.332;2023-02-13T13:57:11;9.00;;;6.68;;
77589;SDS011;66746;51.328;12.332;2023-02-13T14:02:51;10.40;;;6.90;;
77589;SDS011;66746;51.328;12.332;2023-02-13T14:05:58;11.43;;;6.75;;
77589;SDS011;66746;51.328;12.332;2023-02-13T14:11:31;9.60;;;6.60;;
77589;SDS011;66746;51.328;12.332;2023-02-13T14:14:01;11.05;;;7.28;;
77589;SDS011;66746;51.328;12.332;2023-02-13T14:16:47;10.98;;;7.65;;
77589;SDS011;66746;51.328;12.332;2023-02-13T14:19:22;8.88;;;6.45;;
77589;SDS011;66746;51.328;12.332;2023-02-13T14:21:50;10.75;;;7.05;;
77589;SDS011;66746;51.328;12.332;2023-02-13T14:24:18;11.15;;;7.72;;
77589;SDS011;66746;51.328;12.332;2023-02-13T14:26:49;10.68;;;7.03;;
77589;SDS011;66746;51.328;12.332;2023-02-13T14:29:23;9.98;;;6.25;;
77589;SDS011;66746;51.328;12.332;2023-02-13T14:31:55;11.18;;;7.35;;
77589;SDS011;66746;51.328;12.332;2023-02-13T14:34:31;10.85;;;6.57;;
77589;SDS011;66746;51.328;12.332;2023-02-13T14:37:03;11.07;;;7.72;;
77589;SDS011;66746;51.328;12.332;2023-02-13T14:39:37;11.07;;;6.78;;
77589;SDS011;66746;51.328;12.332;2023-02-13T14:42:03;12.18;;;6.78;;
77589;SDS011;66746;51.328;12.332;2023-02-13T14:44:50;14.90;;;6.93;;
77589;SDS011;66746;51.328;12.332;2023-02-13T14:47:20;8.75;;;6.50;;
77589;SDS011;66746;51.328;12.332;2023-02-13T14:49:52;11.52;;;7.75;;
77589;SDS011;66746;51.328;12.332;2023-02-13T14:52:20;8.93;;;6.80;;
77589;SDS011;66746;51.328;12.332;2023-02-13T14:54:49;8.98;;;6.07;;
77589;SDS011;66746;51.328;12.332;2023-02-13T14:57:18;10.90;;;7.07;;
77589;SDS011;66746;51.328;12.332;2023-02-13T14:59:49;9.45;;;6.13;;
77589;SDS011;66746;51.328;12.332;2023-02-13T15:02:21;13.43;;;6.90;;
77589;SDS011;66746;51.328;12.332;2023-02-13T15:04:48;12.30;;;7.50;;